sensor_id;sensor_type;location;lat;lon;timestamp;P1;durP1;ratioP1;P2;durP2;ratioP2
38783;SDS011;24531;45.502;12.238;2024-02-04T00:00:27;135.20;;;85.55;;
38783;SDS011;24531;45.502;12.238;2024-02-04T00:02:53;135.88;;;85.43;;
38783;SDS011;24531;45.502;12.238;2024-02-04T00:05:19;146.95;;;88.57;;
38783;SDS011;24531;45.502;12.238;2024-02-04T00:07:45;137.75;;;89.18;;
38783;SDS011;24531;45.502;12.238;2024-02-04T00:10:10;141.82;;;88.70;;
38783;SDS011;24531;45.502;12.238;2024-02-04T00:12:36;135.63;;;89.82;;
38783;SDS011;24531;45.502;12.238;2024-02-04T00:15:02;149.48;;;89.82;;
38783;SDS011;24531;45.502;12.238;2024-02-04T00:17:31;142.48;;;88.15;;
38783;SDS011;24531;45.502;12.238;2024-02-04T00:19:59;132.60;;;83.53;;
38783;SDS011;24531;45.502;12.238;2024-02-04T00:22:26;135.00;;;83.60;;
38783;SDS011;24531;45.502;12.238;2024-02-04T00:24:52;138.27;;;84.15;;
38783;SDS011;24531;45.502;12.238;2024-02-04T00:27:17;133.93;;;84.00;;
38783;SDS011;24531;45.502;12.238;2024-02-04T00:29:43;135.82;;;84.35;;
38783;SDS011;24531;45.502;12.238;2024-02-04T00:32:09;131.90;;;83.47;;
38783;SDS011;24531;45.502;12.238;2024-02-04T00:34:34;137.45;;;84.00;;
38783;SDS011;24531;45.502;12.238;2024-02-04T00:37:00;132.30;;;81.38;;
38783;SDS011;24531;45.502;12.238;2024-02-04T00:39:25;128.57;;;81.22;;
38783;SDS011;24531;45.502;12.238;2024-02-04T00:41:51;135.95;;;83.50;;
38783;SDS011;24531;45.502;12.238;2024-02-04T00:44:17;131.20;;;79.40;;
38783;SDS011;24531;45.502;12.238;2024-02-04T00:46:43;128.95;;;80.60;;
38783;SDS011;24531;45.502;12.238;2024-02-04T00:49:09;122.75;;;80.85;;
38783;SDS011;24531;45.502;12.238;2024-02-04T00:51:35;130.35;;;80.28;;
38783;SDS011;24531;45.502;12.238;2024-02-04T00:54:00;130.60;;;81.53;;
38783;SDS011;24531;45.502;12.238;2024-02-04T00:56:26;129.35;;;81.72;;
38783;SDS011;24531;45.502;12.238;2024-02-04T00:58:51;126.95;;;79.15;;
38783;SDS011;24531;45.502;12.238;2024-02-04T01:01:17;127.32;;;80.18;;
38783;SDS011;24531;45.502;12.238;2024-02-04T01:03:44;125.88;;;79.15;;
38783;SDS011;24531;45.502;12.238;2024-02-04T01:06:10;137.70;;;82.00;;
38783;SDS011;24531;45.502;12.238;2024-02-04T01:08:36;124.00;;;78.53;;
38783;SDS011;24531;45.502;12.238;2024-02-04T01:11:02;129.60;;;81.13;;
38783;SDS011;24531;45.502;12.238;2024-02-04T01:13:30;135.35;;;80.53;;
38783;SDS011;24531;45.502;12.238;2024-02-04T01:15:55;137.10;;;82.82;;
38783;SDS011;24531;45.502;12.238;2024-02-04T01:18:21;136.07;;;82.45;;
38783;SDS011;24531;45.502;12.238;2024-02-04T01:20:46;131.63;;;84.43;;
38783;SDS011;24531;45.502;12.238;2024-02-04T01:23:12;127.43;;;79.53;;
38783;SDS011;24531;45.502;12.238;2024-02-04T01:25:38;126.88;;;79.78;;
38783;SDS011;24531;45.502;12.238;2024-02-04T01:28:03;132.40;;;82.90;;
38783;SDS011;24531;45.502;12.238;2024-02-04T01:30:29;129.40;;;82.50;;
38783;SDS011;24531;45.502;12.238;2024-02-04T01:32:56;129.88;;;81.50;;
38783;SDS011;24531;45.502;12.238;2024-02-04T01:35:22;132.27;;;82.93;;
38783;SDS011;24531;45.502;12.238;2024-02-04T01:37:47;131.52;;;82.15;;
38783;SDS011;24531;45.502;12.238;2024-02-04T01:40:13;130.98;;;82.15;;
38783;SDS011;24531;45.502;12.238;2024-02-04T01:42:39;129.38;;;80.68;;
38783;SDS011;24531;45.502;12.238;2024-02-04T01:45:05;122.72;;;79.88;;
38783;SDS011;24531;45.502;12.238;2024-02-04T01:47:32;123.43;;;82.50;;
38783;SDS011;24531;45.502;12.238;2024-02-04T01:49:58;135.02;;;81.60;;
38783;SDS011;24531;45.502;12.238;2024-02-04T01:52:24;128.10;;;80.47;;
38783;SDS011;24531;45.502;12.238;2024-02-04T01:54:50;133.75;;;84.50;;
38783;SDS011;24531;45.502;12.238;2024-02-04T01:57:18;123.22;;;79.65;;
38783;SDS011;24531;45.502;12.238;2024-02-04T01:59:44;123.55;;;80.32;;
38783;SDS011;24531;45.502;12.238;2024-02-04T02:02:10;129.15;;;80.65;;
38783;SDS011;24531;45.502;12.238;2024-02-04T02:04:35;127.75;;;80.75;;
38783;SDS011;24531;45.502;12.238;2024-02-04T02:07:01;134.88;;;83.15;;
38783;SDS011;24531;45.502;12.238;2024-02-04T02:09:27;126.15;;;80.53;;
38783;SDS011;24531;45.502;12.238;2024-02-04T02:14:30;123.82;;;79.18;;
38783;SDS011;24531;45.502;12.238;2024-02-04T02:17:00;131.18;;;80.25;;
38783;SDS011;24531;45.502;12.238;2024-02-04T02:25:13;136.35;;;81.30;;
38783;SDS011;24531;45.502;12.238;2024-02-04T02:27:47;144.10;;;83.10;;
38783;SDS011;24531;45.502;12.238;2024-02-04T02:30:13;148.60;;;88.43;;
38783;SDS011;24531;45.502;12.238;2024-02-04T02:32:39;139.30;;;85.75;;
38783;SDS011;24531;45.502;12.238;2024-02-04T02:35:05;150.85;;;88.43;;
38783;SDS011;24531;45.502;12.238;2024-02-04T02:37:39;156.65;;;88.22;;
38783;SDS011;24531;45.502;12.238;2024-02-04T02:40:08;152.88;;;88.30;;
38783;SDS011;24531;45.502;12.238;2024-02-04T02:42:46;150.30;;;88.15;;
38783;SDS011;24531;45.502;12.238;2024-02-04T02:45:13;154.70;;;86.85;;
38783;SDS011;24531;45.502;12.238;2024-02-04T02:47:41;139.10;;;84.47;;
38783;SDS011;24531;45.502;12.238;2024-02-04T02:50:07;139.73;;;83.28;;
38783;SDS011;24531;45.502;12.238;2024-02-04T02:52:34;135.20;;;82.43;;
38783;SDS011;24531;45.502;12.238;2024-02-04T02:55:00;129.25;;;80.68;;
38783;SDS011;24531;45.502;12.238;2024-02-04T02:57:25;142.32;;;83.00;;
38783;SDS011;24531;45.502;12.238;2024-02-04T02:59:51;134.18;;;81.90;;
38783;SDS011;24531;45.502;12.238;2024-02-04T03:02:17;139.00;;;82.28;;
38783;SDS011;24531;45.502;12.238;2024-02-04T03:04:42;137.93;;;82.35;;
38783;SDS011;24531;45.502;12.238;2024-02-04T03:07:08;137.30;;;81.63;;
38783;SDS011;24531;45.502;12.238;2024-02-04T03:09:34;134.15;;;79.57;;
38783;SDS011;24531;45.502;12.238;2024-02-04T03:12:00;134.18;;;82.13;;
38783;SDS011;24531;45.502;12.238;2024-02-04T03:14:25;127.55;;;78.88;;
38783;SDS011;24531;45.502;12.238;2024-02-04T03:16:51;132.93;;;82.45;;
38783;SDS011;24531;45.502;12.238;2024-02-04T03:19:17;134.63;;;80.00;;
38783;SDS011;24531;45.502;12.238;2024-02-04T03:21:42;140.45;;;84.63;;
38783;SDS011;24531;45.502;12.238;2024-02-04T03:24:08;139.70;;;83.72;;
38783;SDS011;24531;45.502;12.238;2024-02-04T03:26:33;131.95;;;80.50;;
38783;SDS011;24531;45.502;12.238;2024-02-04T03:28:59;138.82;;;81.75;;
38783;SDS011;24531;45.502;12.238;2024-02-04T03:31:25;139.38;;;82.32;;
38783;SDS011;24531;45.502;12.238;2024-02-04T03:33:50;130.98;;;79.93;;
38783;SDS011;24531;45.502;12.238;2024-02-04T03:36:18;132.30;;;80.85;;
38783;SDS011;24531;45.502;12.238;2024-02-04T03:38:45;130.52;;;79.13;;
38783;SDS011;24531;45.502;12.238;2024-02-04T03:41:10;132.10;;;79.22;;
38783;SDS011;24531;45.502;12.238;2024-02-04T03:43:36;125.15;;;76.95;;
38783;SDS011;24531;45.502;12.238;2024-02-04T03:46:02;126.32;;;77.65;;
38783;SDS011;24531;45.502;12.238;2024-02-04T03:48:28;130.73;;;77.55;;
38783;SDS011;24531;45.502;12.238;2024-02-04T03:50:54;124.45;;;77.30;;
38783;SDS011;24531;45.502;12.238;2024-02-04T03:53:19;131.73;;;80.05;;
38783;SDS011;24531;45.502;12.238;2024-02-04T03:55:47;130.50;;;77.07;;
38783;SDS011;24531;45.502;12.238;2024-02-04T03:58:16;133.45;;;76.18;;
38783;SDS011;24531;45.502;12.238;2024-02-04T04:00:42;131.90;;;77.50;;
38783;SDS011;24531;45.502;12.238;2024-02-04T04:03:08;124.03;;;75.57;;
38783;SDS011;24531;45.502;12.238;2024-02-04T04:05:34;130.57;;;75.28;;
38783;SDS011;24531;45.502;12.238;2024-02-04T04:08:01;125.32;;;78.03;;
38783;SDS011;24531;45.502;12.238;2024-02-04T04:10:26;122.22;;;75.90;;
38783;SDS011;24531;45.502;12.238;2024-02-04T04:12:52;126.88;;;75.72;;
38783;SDS011;24531;45.502;12.238;2024-02-04T04:15:17;118.88;;;73.13;;
38783;SDS011;24531;45.502;12.238;2024-02-04T04:17:43;120.15;;;75.00;;
38783;SDS011;24531;45.502;12.238;2024-02-04T04:20:08;122.93;;;74.43;;
38783;SDS011;24531;45.502;12.238;2024-02-04T04:22:34;119.88;;;73.43;;
38783;SDS011;24531;45.502;12.238;2024-02-04T04:25:00;115.40;;;73.85;;
38783;SDS011;24531;45.502;12.238;2024-02-04T04:27:25;117.05;;;72.50;;
38783;SDS011;24531;45.502;12.238;2024-02-04T04:29:51;115.55;;;69.32;;
38783;SDS011;24531;45.502;12.238;2024-02-04T04:32:16;120.45;;;71.10;;
38783;SDS011;24531;45.502;12.238;2024-02-04T04:34:42;112.78;;;70.03;;
38783;SDS011;24531;45.502;12.238;2024-02-04T04:37:08;110.65;;;70.70;;
38783;SDS011;24531;45.502;12.238;2024-02-04T04:39:34;115.30;;;74.13;;
38783;SDS011;24531;45.502;12.238;2024-02-04T04:41:59;117.03;;;71.93;;
38783;SDS011;24531;45.502;12.238;2024-02-04T04:44:25;113.53;;;68.85;;
38783;SDS011;24531;45.502;12.238;2024-02-04T04:46:50;120.45;;;72.68;;
38783;SDS011;24531;45.502;12.238;2024-02-04T04:49:16;109.15;;;69.00;;
38783;SDS011;24531;45.502;12.238;2024-02-04T04:51:45;110.85;;;69.70;;
38783;SDS011;24531;45.502;12.238;2024-02-04T04:54:13;115.55;;;72.85;;
38783;SDS011;24531;45.502;12.238;2024-02-04T04:56:39;113.00;;;71.63;;
38783;SDS011;24531;45.502;12.238;2024-02-04T04:59:06;117.47;;;71.93;;
38783;SDS011;24531;45.502;12.238;2024-02-04T05:01:32;111.95;;;69.40;;
38783;SDS011;24531;45.502;12.238;2024-02-04T05:03:58;113.80;;;67.93;;
38783;SDS011;24531;45.502;12.238;2024-02-04T05:06:23;114.22;;;69.88;;
38783;SDS011;24531;45.502;12.238;2024-02-04T05:08:49;108.13;;;68.85;;
38783;SDS011;24531;45.502;12.238;2024-02-04T05:11:15;115.63;;;71.45;;
38783;SDS011;24531;45.502;12.238;2024-02-04T05:13:40;120.05;;;72.40;;
38783;SDS011;24531;45.502;12.238;2024-02-04T05:16:06;105.93;;;67.78;;
38783;SDS011;24531;45.502;12.238;2024-02-04T05:18:31;112.07;;;72.22;;
38783;SDS011;24531;45.502;12.238;2024-02-04T05:20:57;114.00;;;68.93;;
38783;SDS011;24531;45.502;12.238;2024-02-04T05:23:23;110.57;;;68.03;;
38783;SDS011;24531;45.502;12.238;2024-02-04T05:25:48;113.75;;;70.45;;
38783;SDS011;24531;45.502;12.238;2024-02-04T05:28:14;110.28;;;68.40;;
38783;SDS011;24531;45.502;12.238;2024-02-04T05:30:39;112.63;;;68.68;;
38783;SDS011;24531;45.502;12.238;2024-02-04T05:33:05;111.63;;;68.03;;
38783;SDS011;24531;45.502;12.238;2024-02-04T05:35:31;122.97;;;73.32;;
38783;SDS011;24531;45.502;12.238;2024-02-04T05:37:56;122.80;;;74.82;;
38783;SDS011;24531;45.502;12.238;2024-02-04T05:40:22;124.82;;;74.18;;
38783;SDS011;24531;45.502;12.238;2024-02-04T05:42:48;115.65;;;70.75;;
38783;SDS011;24531;45.502;12.238;2024-02-04T05:45:13;116.78;;;73.22;;
38783;SDS011;24531;45.502;12.238;2024-02-04T05:47:39;121.45;;;74.88;;
38783;SDS011;24531;45.502;12.238;2024-02-04T05:50:05;112.38;;;71.07;;
38783;SDS011;24531;45.502;12.238;2024-02-04T05:52:31;118.22;;;71.30;;
38783;SDS011;24531;45.502;12.238;2024-02-04T05:54:56;117.13;;;72.20;;
38783;SDS011;24531;45.502;12.238;2024-02-04T05:57:22;117.68;;;74.18;;
38783;SDS011;24531;45.502;12.238;2024-02-04T05:59:48;110.75;;;68.38;;
38783;SDS011;24531;45.502;12.238;2024-02-04T06:02:14;116.93;;;70.22;;
38783;SDS011;24531;45.502;12.238;2024-02-04T06:04:40;114.10;;;71.15;;
38783;SDS011;24531;45.502;12.238;2024-02-04T06:07:06;117.85;;;71.38;;
38783;SDS011;24531;45.502;12.238;2024-02-04T06:09:35;113.93;;;69.32;;
38783;SDS011;24531;45.502;12.238;2024-02-04T06:12:00;119.85;;;70.47;;
38783;SDS011;24531;45.502;12.238;2024-02-04T06:14:27;106.95;;;69.18;;
38783;SDS011;24531;45.502;12.238;2024-02-04T06:16:52;118.30;;;72.03;;
38783;SDS011;24531;45.502;12.238;2024-02-04T06:19:18;113.63;;;70.53;;
38783;SDS011;24531;45.502;12.238;2024-02-04T06:21:43;114.55;;;68.78;;
38783;SDS011;24531;45.502;12.238;2024-02-04T06:24:09;117.03;;;70.95;;
38783;SDS011;24531;45.502;12.238;2024-02-04T06:26:38;105.47;;;68.10;;
38783;SDS011;24531;45.502;12.238;2024-02-04T06:29:04;114.20;;;68.80;;
38783;SDS011;24531;45.502;12.238;2024-02-04T06:31:30;107.97;;;67.40;;
38783;SDS011;24531;45.502;12.238;2024-02-04T06:33:55;114.40;;;70.18;;
38783;SDS011;24531;45.502;12.238;2024-02-04T06:36:21;112.10;;;69.55;;
38783;SDS011;24531;45.502;12.238;2024-02-04T06:38:46;111.10;;;66.38;;
38783;SDS011;24531;45.502;12.238;2024-02-04T06:41:12;109.47;;;68.20;;
38783;SDS011;24531;45.502;12.238;2024-02-04T06:43:37;113.18;;;66.78;;
38783;SDS011;24531;45.502;12.238;2024-02-04T06:46:04;104.93;;;66.75;;
38783;SDS011;24531;45.502;12.238;2024-02-04T06:48:29;101.20;;;62.33;;
38783;SDS011;24531;45.502;12.238;2024-02-04T06:50:55;106.07;;;65.40;;
38783;SDS011;24531;45.502;12.238;2024-02-04T06:53:21;110.13;;;65.63;;
38783;SDS011;24531;45.502;12.238;2024-02-04T06:55:46;104.60;;;66.32;;
38783;SDS011;24531;45.502;12.238;2024-02-04T06:58:12;111.85;;;65.50;;
38783;SDS011;24531;45.502;12.238;2024-02-04T07:00:37;108.88;;;65.65;;
38783;SDS011;24531;45.502;12.238;2024-02-04T07:03:03;115.78;;;67.40;;
38783;SDS011;24531;45.502;12.238;2024-02-04T07:05:29;103.90;;;63.50;;
38783;SDS011;24531;45.502;12.238;2024-02-04T07:07:56;99.85;;;62.40;;
38783;SDS011;24531;45.502;12.238;2024-02-04T07:10:21;105.00;;;63.65;;
38783;SDS011;24531;45.502;12.238;2024-02-04T07:12:47;106.10;;;63.17;;
38783;SDS011;24531;45.502;12.238;2024-02-04T07:15:12;103.30;;;62.45;;
38783;SDS011;24531;45.502;12.238;2024-02-04T07:17:38;100.38;;;64.95;;
38783;SDS011;24531;45.502;12.238;2024-02-04T07:20:04;101.95;;;61.83;;
38783;SDS011;24531;45.502;12.238;2024-02-04T07:22:30;104.63;;;64.88;;
38783;SDS011;24531;45.502;12.238;2024-02-04T07:24:56;98.10;;;62.38;;
38783;SDS011;24531;45.502;12.238;2024-02-04T07:27:22;106.10;;;62.00;;
38783;SDS011;24531;45.502;12.238;2024-02-04T07:29:47;98.93;;;64.03;;
38783;SDS011;24531;45.502;12.238;2024-02-04T07:32:16;99.50;;;61.45;;
38783;SDS011;24531;45.502;12.238;2024-02-04T07:34:41;94.43;;;59.03;;
38783;SDS011;24531;45.502;12.238;2024-02-04T07:37:07;101.10;;;63.38;;
38783;SDS011;24531;45.502;12.238;2024-02-04T07:39:33;99.63;;;62.08;;
38783;SDS011;24531;45.502;12.238;2024-02-04T07:41:58;95.03;;;61.28;;
38783;SDS011;24531;45.502;12.238;2024-02-04T07:44:25;94.53;;;58.90;;
38783;SDS011;24531;45.502;12.238;2024-02-04T07:46:52;91.35;;;58.95;;
38783;SDS011;24531;45.502;12.238;2024-02-04T07:49:17;88.82;;;54.88;;
38783;SDS011;24531;45.502;12.238;2024-02-04T07:51:43;91.07;;;56.90;;
38783;SDS011;24531;45.502;12.238;2024-02-04T07:54:08;90.40;;;55.38;;
38783;SDS011;24531;45.502;12.238;2024-02-04T07:56:34;85.22;;;55.70;;
38783;SDS011;24531;45.502;12.238;2024-02-04T07:58:59;88.18;;;54.70;;
38783;SDS011;24531;45.502;12.238;2024-02-04T08:01:25;82.15;;;53.40;;
38783;SDS011;24531;45.502;12.238;2024-02-04T08:03:51;86.57;;;53.42;;
38783;SDS011;24531;45.502;12.238;2024-02-04T08:06:16;84.50;;;54.97;;
38783;SDS011;24531;45.502;12.238;2024-02-04T08:08:42;79.43;;;50.42;;
38783;SDS011;24531;45.502;12.238;2024-02-04T08:11:09;85.60;;;52.40;;
38783;SDS011;24531;45.502;12.238;2024-02-04T08:13:35;86.13;;;53.53;;
38783;SDS011;24531;45.502;12.238;2024-02-04T08:16:00;88.15;;;56.92;;
38783;SDS011;24531;45.502;12.238;2024-02-04T08:18:26;83.75;;;54.25;;
38783;SDS011;24531;45.502;12.238;2024-02-04T08:20:52;119.43;;;71.57;;
38783;SDS011;24531;45.502;12.238;2024-02-04T08:23:18;129.65;;;81.50;;
38783;SDS011;24531;45.502;12.238;2024-02-04T08:25:44;111.00;;;65.93;;
38783;SDS011;24531;45.502;12.238;2024-02-04T08:28:09;99.88;;;62.17;;
38783;SDS011;24531;45.502;12.238;2024-02-04T08:30:35;159.45;;;99.35;;
38783;SDS011;24531;45.502;12.238;2024-02-04T08:33:00;123.68;;;78.85;;
38783;SDS011;24531;45.502;12.238;2024-02-04T08:35:26;113.57;;;71.20;;
38783;SDS011;24531;45.502;12.238;2024-02-04T08:37:52;104.15;;;65.85;;
38783;SDS011;24531;45.502;12.238;2024-02-04T08:40:17;154.20;;;104.20;;
38783;SDS011;24531;45.502;12.238;2024-02-04T08:42:43;119.30;;;80.13;;
38783;SDS011;24531;45.502;12.238;2024-02-04T08:45:09;113.07;;;70.50;;
38783;SDS011;24531;45.502;12.238;2024-02-04T08:47:35;103.88;;;65.90;;
38783;SDS011;24531;45.502;12.238;2024-02-04T08:50:00;98.47;;;67.32;;
38783;SDS011;24531;45.502;12.238;2024-02-04T08:52:26;99.15;;;66.28;;
38783;SDS011;24531;45.502;12.238;2024-02-04T08:54:51;106.22;;;69.85;;
38783;SDS011;24531;45.502;12.238;2024-02-04T08:57:17;99.45;;;64.25;;
38783;SDS011;24531;45.502;12.238;2024-02-04T08:59:43;103.68;;;67.72;;
38783;SDS011;24531;45.502;12.238;2024-02-04T09:02:08;103.07;;;68.53;;
38783;SDS011;24531;45.502;12.238;2024-02-04T09:04:34;101.30;;;69.22;;
38783;SDS011;24531;45.502;12.238;2024-02-04T09:07:05;112.00;;;71.60;;
38783;SDS011;24531;45.502;12.238;2024-02-04T09:09:32;112.40;;;72.13;;
38783;SDS011;24531;45.502;12.238;2024-02-04T09:11:58;108.68;;;71.40;;
38783;SDS011;24531;45.502;12.238;2024-02-04T09:14:24;102.28;;;69.63;;
38783;SDS011;24531;45.502;12.238;2024-02-04T09:16:49;113.40;;;72.65;;
38783;SDS011;24531;45.502;12.238;2024-02-04T09:19:15;116.07;;;72.78;;
38783;SDS011;24531;45.502;12.238;2024-02-04T09:21:40;102.38;;;68.70;;
38783;SDS011;24531;45.502;12.238;2024-02-04T09:24:07;111.28;;;69.88;;
38783;SDS011;24531;45.502;12.238;2024-02-04T09:26:32;110.40;;;68.90;;
38783;SDS011;24531;45.502;12.238;2024-02-04T09:28:58;108.10;;;67.65;;
38783;SDS011;24531;45.502;12.238;2024-02-04T09:31:23;105.25;;;70.78;;
38783;SDS011;24531;45.502;12.238;2024-02-04T09:33:49;108.20;;;66.60;;
38783;SDS011;24531;45.502;12.238;2024-02-04T09:36:15;102.25;;;67.13;;
38783;SDS011;24531;45.502;12.238;2024-02-04T09:38:40;99.40;;;66.47;;
38783;SDS011;24531;45.502;12.238;2024-02-04T09:41:06;110.40;;;72.13;;
38783;SDS011;24531;45.502;12.238;2024-02-04T09:43:32;150.80;;;87.72;;
38783;SDS011;24531;45.502;12.238;2024-02-04T09:46:00;135.15;;;79.90;;
38783;SDS011;24531;45.502;12.238;2024-02-04T09:48:26;109.43;;;69.32;;
38783;SDS011;24531;45.502;12.238;2024-02-04T09:50:54;102.30;;;67.97;;
38783;SDS011;24531;45.502;12.238;2024-02-04T09:53:21;108.05;;;68.20;;
38783;SDS011;24531;45.502;12.238;2024-02-04T09:55:57;106.07;;;68.72;;
38783;SDS011;24531;45.502;12.238;2024-02-04T09:58:24;102.63;;;68.65;;
38783;SDS011;24531;45.502;12.238;2024-02-04T10:00:50;97.47;;;65.53;;
38783;SDS011;24531;45.502;12.238;2024-02-04T10:03:17;98.60;;;65.32;;
38783;SDS011;24531;45.502;12.238;2024-02-04T10:05:42;100.90;;;67.05;;
38783;SDS011;24531;45.502;12.238;2024-02-04T10:08:08;97.38;;;65.63;;
38783;SDS011;24531;45.502;12.238;2024-02-04T10:10:34;100.53;;;63.80;;
38783;SDS011;24531;45.502;12.238;2024-02-04T10:13:04;108.15;;;65.63;;
38783;SDS011;24531;45.502;12.238;2024-02-04T10:15:33;103.70;;;67.55;;
38783;SDS011;24531;45.502;12.238;2024-02-04T10:17:59;110.47;;;71.80;;
38783;SDS011;24531;45.502;12.238;2024-02-04T10:20:28;105.95;;;71.30;;
38783;SDS011;24531;45.502;12.238;2024-02-04T10:22:54;109.78;;;73.85;;
38783;SDS011;24531;45.502;12.238;2024-02-04T10:25:20;107.40;;;72.38;;
38783;SDS011;24531;45.502;12.238;2024-02-04T10:27:46;115.90;;;74.97;;
38783;SDS011;24531;45.502;12.238;2024-02-04T10:30:12;116.88;;;76.50;;
38783;SDS011;24531;45.502;12.238;2024-02-04T10:32:39;116.50;;;77.45;;
38783;SDS011;24531;45.502;12.238;2024-02-04T10:35:04;117.97;;;79.30;;
38783;SDS011;24531;45.502;12.238;2024-02-04T10:37:30;123.72;;;80.10;;
38783;SDS011;24531;45.502;12.238;2024-02-04T10:39:56;128.00;;;82.22;;
38783;SDS011;24531;45.502;12.238;2024-02-04T10:42:23;124.30;;;83.20;;
38783;SDS011;24531;45.502;12.238;2024-02-04T10:44:53;127.07;;;80.03;;
38783;SDS011;24531;45.502;12.238;2024-02-04T10:47:23;119.25;;;79.38;;
38783;SDS011;24531;45.502;12.238;2024-02-04T10:49:52;123.97;;;80.10;;
38783;SDS011;24531;45.502;12.238;2024-02-04T10:52:18;119.53;;;77.05;;
38783;SDS011;24531;45.502;12.238;2024-02-04T10:54:46;115.35;;;75.07;;
38783;SDS011;24531;45.502;12.238;2024-02-04T10:57:13;121.32;;;78.35;;
38783;SDS011;24531;45.502;12.238;2024-02-04T10:59:42;118.63;;;75.63;;
38783;SDS011;24531;45.502;12.238;2024-02-04T11:02:09;118.85;;;76.72;;
38783;SDS011;24531;45.502;12.238;2024-02-04T11:04:36;124.85;;;79.13;;
38783;SDS011;24531;45.502;12.238;2024-02-04T11:07:03;129.02;;;79.47;;
38783;SDS011;24531;45.502;12.238;2024-02-04T11:09:30;120.22;;;77.70;;
38783;SDS011;24531;45.502;12.238;2024-02-04T11:11:57;119.00;;;77.43;;
38783;SDS011;24531;45.502;12.238;2024-02-04T11:14:25;111.88;;;75.07;;
38783;SDS011;24531;45.502;12.238;2024-02-04T11:27:28;114.60;;;69.22;;
38783;SDS011;24531;45.502;12.238;2024-02-04T11:29:54;108.10;;;73.43;;
38783;SDS011;24531;45.502;12.238;2024-02-04T11:32:21;116.53;;;77.10;;
38783;SDS011;24531;45.502;12.238;2024-02-04T11:34:48;118.43;;;75.35;;
38783;SDS011;24531;45.502;12.238;2024-02-04T11:37:17;124.65;;;76.78;;
38783;SDS011;24531;45.502;12.238;2024-02-04T11:39:50;118.75;;;75.72;;
38783;SDS011;24531;45.502;12.238;2024-02-04T11:42:17;115.22;;;75.88;;
38783;SDS011;24531;45.502;12.238;2024-02-04T11:44:43;121.88;;;78.47;;
38783;SDS011;24531;45.502;12.238;2024-02-04T11:47:10;123.13;;;78.90;;
38783;SDS011;24531;45.502;12.238;2024-02-04T11:49:36;123.25;;;79.07;;
38783;SDS011;24531;45.502;12.238;2024-02-04T11:52:01;122.75;;;77.85;;
38783;SDS011;24531;45.502;12.238;2024-02-04T11:54:27;128.95;;;79.97;;
38783;SDS011;24531;45.502;12.238;2024-02-04T11:56:53;132.43;;;81.93;;
38783;SDS011;24531;45.502;12.238;2024-02-04T11:59:20;123.57;;;78.80;;
38783;SDS011;24531;45.502;12.238;2024-02-04T12:01:47;132.35;;;82.00;;
38783;SDS011;24531;45.502;12.238;2024-02-04T12:04:13;127.10;;;79.88;;
38783;SDS011;24531;45.502;12.238;2024-02-04T12:06:41;125.28;;;83.45;;
38783;SDS011;24531;45.502;12.238;2024-02-04T12:09:07;134.20;;;83.45;;
38783;SDS011;24531;45.502;12.238;2024-02-04T12:11:35;133.05;;;82.38;;
38783;SDS011;24531;45.502;12.238;2024-02-04T12:14:03;123.97;;;74.35;;
38783;SDS011;24531;45.502;12.238;2024-02-04T12:16:30;119.32;;;73.47;;
38783;SDS011;24531;45.502;12.238;2024-02-04T12:18:57;114.88;;;70.57;;
38783;SDS011;24531;45.502;12.238;2024-02-04T12:21:23;119.45;;;72.25;;
38783;SDS011;24531;45.502;12.238;2024-02-04T12:23:49;116.25;;;71.90;;
38783;SDS011;24531;45.502;12.238;2024-02-04T12:26:16;119.85;;;73.20;;
38783;SDS011;24531;45.502;12.238;2024-02-04T12:28:42;116.43;;;75.50;;
38783;SDS011;24531;45.502;12.238;2024-02-04T12:31:15;118.90;;;75.15;;
38783;SDS011;24531;45.502;12.238;2024-02-04T12:33:51;120.20;;;75.85;;
38783;SDS011;24531;45.502;12.238;2024-02-04T12:36:19;121.05;;;76.85;;
38783;SDS011;24531;45.502;12.238;2024-02-04T12:38:54;128.45;;;82.18;;
38783;SDS011;24531;45.502;12.238;2024-02-04T12:41:23;131.23;;;80.10;;
38783;SDS011;24531;45.502;12.238;2024-02-04T12:43:59;119.63;;;76.53;;
38783;SDS011;24531;45.502;12.238;2024-02-04T12:46:30;118.28;;;74.13;;
38783;SDS011;24531;45.502;12.238;2024-02-04T12:48:56;115.35;;;71.32;;
38783;SDS011;24531;45.502;12.238;2024-02-04T12:51:32;105.97;;;66.40;;
38783;SDS011;24531;45.502;12.238;2024-02-04T12:54:05;105.85;;;64.82;;
38783;SDS011;24531;45.502;12.238;2024-02-04T12:57:06;104.60;;;65.40;;
38783;SDS011;24531;45.502;12.238;2024-02-04T12:59:28;103.28;;;64.20;;
38783;SDS011;24531;45.502;12.238;2024-02-04T13:02:01;108.25;;;67.22;;
38783;SDS011;24531;45.502;12.238;2024-02-04T13:04:35;113.97;;;69.55;;
38783;SDS011;24531;45.502;12.238;2024-02-04T13:07:08;120.43;;;70.38;;
38783;SDS011;24531;45.502;12.238;2024-02-04T13:09:41;116.07;;;70.82;;
38783;SDS011;24531;45.502;12.238;2024-02-04T13:12:08;120.63;;;74.35;;
38783;SDS011;24531;45.502;12.238;2024-02-04T13:14:34;116.43;;;72.25;;
38783;SDS011;24531;45.502;12.238;2024-02-04T13:17:01;116.68;;;74.10;;
38783;SDS011;24531;45.502;12.238;2024-02-04T13:19:32;115.25;;;74.25;;
38783;SDS011;24531;45.502;12.238;2024-02-04T13:22:04;116.25;;;72.88;;
38783;SDS011;24531;45.502;12.238;2024-02-04T13:24:31;110.53;;;71.13;;
38783;SDS011;24531;45.502;12.238;2024-02-04T13:26:57;118.18;;;72.20;;
38783;SDS011;24531;45.502;12.238;2024-02-04T13:29:25;113.43;;;72.32;;
38783;SDS011;24531;45.502;12.238;2024-02-04T13:31:52;115.00;;;71.15;;
38783;SDS011;24531;45.502;12.238;2024-02-04T13:34:17;112.05;;;73.78;;
38783;SDS011;24531;45.502;12.238;2024-02-04T13:36:45;110.85;;;69.20;;
38783;SDS011;24531;45.502;12.238;2024-02-04T13:39:10;109.25;;;71.20;;
38783;SDS011;24531;45.502;12.238;2024-02-04T13:41:37;111.13;;;71.38;;
38783;SDS011;24531;45.502;12.238;2024-02-04T13:44:04;107.63;;;69.32;;
38783;SDS011;24531;45.502;12.238;2024-02-04T13:46:29;111.82;;;70.28;;
38783;SDS011;24531;45.502;12.238;2024-02-04T13:48:55;109.85;;;67.82;;
38783;SDS011;24531;45.502;12.238;2024-02-04T13:51:21;108.07;;;66.00;;
38783;SDS011;24531;45.502;12.238;2024-02-04T13:53:46;107.50;;;69.75;;
38783;SDS011;24531;45.502;12.238;2024-02-04T13:56:12;115.57;;;73.32;;
38783;SDS011;24531;45.502;12.238;2024-02-04T13:58:37;110.00;;;72.07;;
38783;SDS011;24531;45.502;12.238;2024-02-04T14:01:03;109.78;;;69.85;;
38783;SDS011;24531;45.502;12.238;2024-02-04T14:03:29;112.28;;;73.13;;
38783;SDS011;24531;45.502;12.238;2024-02-04T14:05:54;117.72;;;74.70;;
38783;SDS011;24531;45.502;12.238;2024-02-04T14:08:21;109.38;;;70.72;;
38783;SDS011;24531;45.502;12.238;2024-02-04T14:10:46;108.93;;;69.78;;
38783;SDS011;24531;45.502;12.238;2024-02-04T14:13:12;115.13;;;73.28;;